sensor_id;sensor_type;location;lat;lon;timestamp;temperature;humidity
8953;DHT22;4511;50.890;8.054;2023-05-09T00:01:28;14.70;99.90
8953;DHT22;4511;50.890;8.054;2023-05-09T00:03:56;14.60;99.90
8953;DHT22;4511;50.890;8.054;2023-05-09T00:06:23;14.70;99.90
8953;DHT22;4511;50.890;8.054;2023-05-09T00:08:50;14.70;99.90
8953;DHT22;4511;50.890;8.054;2023-05-09T00:11:18;14.70;99.90
8953;DHT22;4511;50.890;8.054;2023-05-09T00:13:46;14.70;99.90
8953;DHT22;4511;50.890;8.054;2023-05-09T00:16:13;14.70;99.90
8953;DHT22;4511;50.890;8.054;2023-05-09T00:18:40;14.70;99.90
8953;DHT22;4511;50.890;8.054;2023-05-09T00:21:07;14.80;99.90
8953;DHT22;4511;50.890;8.054;2023-05-09T00:23:35;14.70;99.90
8953;DHT22;4511;50.890;8.054;2023-05-09T00:26:02;14.80;99.90
8953;DHT22;4511;50.890;8.054;2023-05-09T00:28:30;14.70;99.90
8953;DHT22;4511;50.890;8.054;2023-05-09T00:30:57;14.80;99.90
8953;DHT22;4511;50.890;8.054;2023-05-09T00:33:24;14.70;99.90
8953;DHT22;4511;50.890;8.054;2023-05-09T00:35:52;14.70;99.90
8953;DHT22;4511;50.890;8.054;2023-05-09T00:38:18;14.70;99.90
8953;DHT22;4511;50.890;8.054;2023-05-09T00:40:45;14.70;99.90
8953;DHT22;4511;50.890;8.054;2023-05-09T00:43:12;14.70;99.90
8953;DHT22;4511;50.890;8.054;2023-05-09T00:45:40;14.70;99.90
8953;DHT22;4511;50.890;8.054;2023-05-09T00:48:07;14.70;99.90
8953;DHT22;4511;50.890;8.054;2023-05-09T00:50:34;14.70;99.90
8953;DHT22;4511;50.890;8.054;2023-05-09T00:53:02;14.70;99.90
8953;DHT22;4511;50.890;8.054;2023-05-09T00:55:29;14.70;99.90
8953;DHT22;4511;50.890;8.054;2023-05-09T00:57:56;14.70;99.90
8953;DHT22;4511;50.890;8.054;2023-05-09T01:00:23;14.70;99.90
8953;DHT22;4511;50.890;8.054;2023-05-09T01:02:53;14.70;99.90
8953;DHT22;4511;50.890;8.054;2023-05-09T01:05:21;14.70;99.90
8953;DHT22;4511;50.890;8.054;2023-05-09T01:07:56;14.80;99.90
8953;DHT22;4511;50.890;8.054;2023-05-09T01:10:32;14.70;99.90
8953;DHT22;4511;50.890;8.054;2023-05-09T01:13:03;14.70;99.90
8953;DHT22;4511;50.890;8.054;2023-05-09T01:15:34;14.70;99.90
8953;DHT22;4511;50.890;8.054;2023-05-09T01:18:09;14.70;99.90
8953;DHT22;4511;50.890;8.054;2023-05-09T01:20:38;14.80;99.90
8953;DHT22;4511;50.890;8.054;2023-05-09T01:23:28;14.70;99.90
8953;DHT22;4511;50.890;8.054;2023-05-09T01:26:02;14.70;99.90
8953;DHT22;4511;50.890;8.054;2023-05-09T01:28:50;14.60;99.90
8953;DHT22;4511;50.890;8.054;2023-05-09T01:31:23;14.60;99.90
8953;DHT22;4511;50.890;8.054;2023-05-09T01:33:54;14.50;99.90
8953;DHT22;4511;50.890;8.054;2023-05-09T01:36:23;14.50;99.90
8953;DHT22;4511;50.890;8.054;2023-05-09T01:38:51;14.50;99.90
8953;DHT22;4511;50.890;8.054;2023-05-09T01:41:20;14.50;99.90
8953;DHT22;4511;50.890;8.054;2023-05-09T01:43:48;14.50;99.90
8953;DHT22;4511;50.890;8.054;2023-05-09T01:46:17;14.50;99.90
8953;DHT22;4511;50.890;8.054;2023-05-09T01:48:47;14.50;99.90
8953;DHT22;4511;50.890;8.054;2023-05-09T01:51:15;14.60;99.90
8953;DHT22;4511;50.890;8.054;2023-05-09T01:53:43;14.60;99.90
8953;DHT22;4511;50.890;8.054;2023-05-09T01:56:11;14.50;99.90
8953;DHT22;4511;50.890;8.054;2023-05-09T01:58:38;14.50;99.90
8953;DHT22;4511;50.890;8.054;2023-05-09T02:01:12;14.50;99.90
8953;DHT22;4511;50.890;8.054;2023-05-09T02:03:41;14.50;99.90
8953;DHT22;4511;50.890;8.054;2023-05-09T02:06:10;14.50;99.90
8953;DHT22;4511;50.890;8.054;2023-05-09T02:08:37;14.50;99.90
8953;DHT22;4511;50.890;8.054;2023-05-09T02:11:04;14.60;99.90
8953;DHT22;4511;50.890;8.054;2023-05-09T02:13:31;14.50;99.90
8953;DHT22;4511;50.890;8.054;2023-05-09T02:15:58;14.50;99.90
8953;DHT22;4511;50.890;8.054;2023-05-09T02:18:26;14.50;99.90
8953;DHT22;4511;50.890;8.054;2023-05-09T02:20:53;14.50;99.90
8953;DHT22;4511;50.890;8.054;2023-05-09T02:23:21;14.50;99.90
8953;DHT22;4511;50.890;8.054;2023-05-09T02:25:49;14.50;99.90
8953;DHT22;4511;50.890;8.054;2023-05-09T02:28:17;14.50;99.90
8953;DHT22;4511;50.890;8.054;2023-05-09T02:30:46;14.50;99.90
8953;DHT22;4511;50.890;8.054;2023-05-09T02:33:14;14.50;99.90
8953;DHT22;4511;50.890;8.054;2023-05-09T02:35:44;14.40;99.90
8953;DHT22;4511;50.890;8.054;2023-05-09T02:38:12;14.40;99.90
8953;DHT22;4511;50.890;8.054;2023-05-09T02:40:41;14.40;99.90
8953;DHT22;4511;50.890;8.054;2023-05-09T02:43:09;14.40;99.90
8953;DHT22;4511;50.890;8.054;2023-05-09T02:45:35;14.40;99.90
8953;DHT22;4511;50.890;8.054;2023-05-09T02:48:03;14.40;99.90
8953;DHT22;4511;50.890;8.054;2023-05-09T02:50:30;14.40;99.90
8953;DHT22;4511;50.890;8.054;2023-05-09T02:52:56;14.50;99.90
8953;DHT22;4511;50.890;8.054;2023-05-09T02:55:23;14.50;99.90
8953;DHT22;4511;50.890;8.054;2023-05-09T02:57:51;14.50;99.90
8953;DHT22;4511;50.890;8.054;2023-05-09T03:00:19;14.50;99.90
8953;DHT22;4511;50.890;8.054;2023-05-09T03:02:46;14.50;99.90
8953;DHT22;4511;50.890;8.054;2023-05-09T03:05:13;14.50;99.90
8953;DHT22;4511;50.890;8.054;2023-05-09T03:07:39;14.50;99.90
8953;DHT22;4511;50.890;8.054;2023-05-09T03:10:07;14.50;99.90
8953;DHT22;4511;50.890;8.054;2023-05-09T03:12:35;14.50;99.90
8953;DHT22;4511;50.890;8.054;2023-05-09T03:15:06;14.40;99.90
8953;DHT22;4511;50.890;8.054;2023-05-09T03:17:33;14.40;99.90
8953;DHT22;4511;50.890;8.054;2023-05-09T03:20:00;14.40;99.90
8953;DHT22;4511;50.890;8.054;2023-05-09T03:22:29;14.40;99.90
8953;DHT22;4511;50.890;8.054;2023-05-09T03:24:56;14.40;99.90
8953;DHT22;4511;50.890;8.054;2023-05-09T03:27:23;14.40;99.90
8953;DHT22;4511;50.890;8.054;2023-05-09T03:29:50;14.40;99.90
8953;DHT22;4511;50.890;8.054;2023-05-09T03:32:18;14.30;99.90
8953;DHT22;4511;50.890;8.054;2023-05-09T03:34:45;14.30;99.90
8953;DHT22;4511;50.890;8.054;2023-05-09T03:37:12;14.30;99.90
8953;DHT22;4511;50.890;8.054;2023-05-09T03:39:39;14.30;99.90
8953;DHT22;4511;50.890;8.054;2023-05-09T03:42:05;14.30;99.90
8953;DHT22;4511;50.890;8.054;2023-05-09T03:44:33;14.40;99.90
8953;DHT22;4511;50.890;8.054;2023-05-09T03:46:59;14.30;99.90
8953;DHT22;4511;50.890;8.054;2023-05-09T03:49:27;14.40;99.90
8953;DHT22;4511;50.890;8.054;2023-05-09T03:51:54;14.40;99.90
8953;DHT22;4511;50.890;8.054;2023-05-09T03:54:21;14.40;99.90
8953;DHT22;4511;50.890;8.054;2023-05-09T03:56:48;14.40;99.90
8953;DHT22;4511;50.890;8.054;2023-05-09T03:59:14;14.40;99.90
8953;DHT22;4511;50.890;8.054;2023-05-09T04:01:41;14.50;99.90
8953;DHT22;4511;50.890;8.054;2023-05-09T04:04:09;14.50;99.90
8953;DHT22;4511;50.890;8.054;2023-05-09T04:06:38;14.50;99.90
8953;DHT22;4511;50.890;8.054;2023-05-09T04:09:05;14.50;99.90
8953;DHT22;4511;50.890;8.054;2023-05-09T04:11:32;14.50;99.90
8953;DHT22;4511;50.890;8.054;2023-05-09T04:13:59;14.50;99.90
8953;DHT22;4511;50.890;8.054;2023-05-09T04:16:25;14.60;99.90
8953;DHT22;4511;50.890;8.054;2023-05-09T04:18:52;14.60;99.90
8953;DHT22;4511;50.890;8.054;2023-05-09T04:21:19;14.60;99.90
8953;DHT22;4511;50.890;8.054;2023-05-09T04:23:47;14.60;99.90
8953;DHT22;4511;50.890;8.054;2023-05-09T04:26:14;14.70;99.90
8953;DHT22;4511;50.890;8.054;2023-05-09T04:28:42;14.70;99.90
8953;DHT22;4511;50.890;8.054;2023-05-09T04:31:09;14.70;99.90
8953;DHT22;4511;50.890;8.054;2023-05-09T04:33:37;14.70;99.90
8953;DHT22;4511;50.890;8.054;2023-05-09T04:36:04;14.70;99.90
8953;DHT22;4511;50.890;8.054;2023-05-09T04:38:31;14.70;99.90
8953;DHT22;4511;50.890;8.054;2023-05-09T04:40:59;14.80;99.90
8953;DHT22;4511;50.890;8.054;2023-05-09T04:43:26;14.70;99.90
8953;DHT22;4511;50.890;8.054;2023-05-09T04:45:54;14.70;99.90
8953;DHT22;4511;50.890;8.054;2023-05-09T04:48:21;14.70;99.90
8953;DHT22;4511;50.890;8.054;2023-05-09T04:50:47;14.70;99.90
8953;DHT22;4511;50.890;8.054;2023-05-09T04:53:14;14.70;99.90
8953;DHT22;4511;50.890;8.054;2023-05-09T04:55:41;14.70;99.90
8953;DHT22;4511;50.890;8.054;2023-05-09T04:58:09;14.70;99.90
8953;DHT22;4511;50.890;8.054;2023-05-09T05:00:36;14.70;99.90
8953;DHT22;4511;50.890;8.054;2023-05-09T05:03:03;14.70;99.90
8953;DHT22;4511;50.890;8.054;2023-05-09T05:05:30;14.90;99.90
8953;DHT22;4511;50.890;8.054;2023-05-09T05:07:56;14.90;99.90
8953;DHT22;4511;50.890;8.054;2023-05-09T05:10:23;14.80;99.90
8953;DHT22;4511;50.890;8.054;2023-05-09T05:12:50;14.80;99.90
8953;DHT22;4511;50.890;8.054;2023-05-09T05:15:18;14.80;99.90
8953;DHT22;4511;50.890;8.054;2023-05-09T05:17:45;14.80;99.90
8953;DHT22;4511;50.890;8.054;2023-05-09T05:20:12;14.90;99.90
8953;DHT22;4511;50.890;8.054;2023-05-09T05:22:38;14.90;99.90
8953;DHT22;4511;50.890;8.054;2023-05-09T05:25:06;15.00;99.90
8953;DHT22;4511;50.890;8.054;2023-05-09T05:27:41;15.00;99.90
8953;DHT22;4511;50.890;8.054;2023-05-09T05:30:09;15.10;99.90
8953;DHT22;4511;50.890;8.054;2023-05-09T05:32:37;15.10;99.90
8953;DHT22;4511;50.890;8.054;2023-05-09T05:35:04;15.10;99.90
8953;DHT22;4511;50.890;8.054;2023-05-09T05:37:31;15.20;99.90
8953;DHT22;4511;50.890;8.054;2023-05-09T05:39:58;15.20;99.90
8953;DHT22;4511;50.890;8.054;2023-05-09T05:42:24;15.30;99.90
8953;DHT22;4511;50.890;8.054;2023-05-09T05:44:51;15.30;99.90
8953;DHT22;4511;50.890;8.054;2023-05-09T05:47:18;15.30;99.90
8953;DHT22;4511;50.890;8.054;2023-05-09T05:49:46;15.40;99.90
8953;DHT22;4511;50.890;8.054;2023-05-09T05:52:13;15.40;99.90
8953;DHT22;4511;50.890;8.054;2023-05-09T05:54:39;15.40;99.90
8953;DHT22;4511;50.890;8.054;2023-05-09T05:57:06;15.40;99.90
8953;DHT22;4511;50.890;8.054;2023-05-09T05:59:33;15.40;99.90
8953;DHT22;4511;50.890;8.054;2023-05-09T06:02:00;15.40;99.90
8953;DHT22;4511;50.890;8.054;2023-05-09T06:04:27;15.50;99.90
8953;DHT22;4511;50.890;8.054;2023-05-09T06:06:55;15.50;99.90
8953;DHT22;4511;50.890;8.054;2023-05-09T06:09:22;15.50;99.90
8953;DHT22;4511;50.890;8.054;2023-05-09T06:11:48;15.60;99.90
8953;DHT22;4511;50.890;8.054;2023-05-09T06:14:15;15.60;99.90
8953;DHT22;4511;50.890;8.054;2023-05-09T06:16:42;15.60;99.90
8953;DHT22;4511;50.890;8.054;2023-05-09T06:19:08;15.70;99.90
8953;DHT22;4511;50.890;8.054;2023-05-09T06:21:35;15.70;99.90
8953;DHT22;4511;50.890;8.054;2023-05-09T06:24:04;15.70;99.90
8953;DHT22;4511;50.890;8.054;2023-05-09T06:26:31;15.70;99.90
8953;DHT22;4511;50.890;8.054;2023-05-09T06:28:58;15.80;99.90
8953;DHT22;4511;50.890;8.054;2023-05-09T06:31:25;15.80;99.90
8953;DHT22;4511;50.890;8.054;2023-05-09T06:33:51;15.80;99.90
8953;DHT22;4511;50.890;8.054;2023-05-09T06:36:18;15.80;99.90
8953;DHT22;4511;50.890;8.054;2023-05-09T06:38:45;15.80;99.90
8953;DHT22;4511;50.890;8.054;2023-05-09T06:41:13;15.80;99.90
8953;DHT22;4511;50.890;8.054;2023-05-09T06:43:40;15.80;99.90
8953;DHT22;4511;50.890;8.054;2023-05-09T06:46:06;15.80;99.90
8953;DHT22;4511;50.890;8.054;2023-05-09T06:48:33;15.80;99.90
8953;DHT22;4511;50.890;8.054;2023-05-09T06:51:00;15.80;99.90
8953;DHT22;4511;50.890;8.054;2023-05-09T06:53:29;15.90;99.90
8953;DHT22;4511;50.890;8.054;2023-05-09T06:55:56;15.90;99.90
8953;DHT22;4511;50.890;8.054;2023-05-09T06:58:24;15.90;99.90
8953;DHT22;4511;50.890;8.054;2023-05-09T07:00:51;15.90;99.90
8953;DHT22;4511;50.890;8.054;2023-05-09T07:03:18;15.80;99.90
8953;DHT22;4511;50.890;8.054;2023-05-09T07:05:45;15.80;99.90
8953;DHT22;4511;50.890;8.054;2023-05-09T07:08:12;15.80;99.90
8953;DHT22;4511;50.890;8.054;2023-05-09T07:10:39;15.80;99.90
8953;DHT22;4511;50.890;8.054;2023-05-09T07:13:05;15.80;99.90
8953;DHT22;4511;50.890;8.054;2023-05-09T07:15:33;15.70;99.90
8953;DHT22;4511;50.890;8.054;2023-05-09T07:18:07;15.80;99.90
8953;DHT22;4511;50.890;8.054;2023-05-09T07:20:34;15.80;99.90
8953;DHT22;4511;50.890;8.054;2023-05-09T07:23:07;15.80;99.90
8953;DHT22;4511;50.890;8.054;2023-05-09T07:25:34;15.90;99.90
8953;DHT22;4511;50.890;8.054;2023-05-09T07:28:01;16.00;99.90
8953;DHT22;4511;50.890;8.054;2023-05-09T07:30:28;16.00;99.90
8953;DHT22;4511;50.890;8.054;2023-05-09T07:32:56;16.10;99.90
8953;DHT22;4511;50.890;8.054;2023-05-09T07:35:22;16.20;99.90
8953;DHT22;4511;50.890;8.054;2023-05-09T07:37:49;16.20;99.90
8953;DHT22;4511;50.890;8.054;2023-05-09T07:40:16;16.20;99.90
8953;DHT22;4511;50.890;8.054;2023-05-09T07:42:43;16.20;99.90
8953;DHT22;4511;50.890;8.054;2023-05-09T07:45:14;16.30;99.90
8953;DHT22;4511;50.890;8.054;2023-05-09T07:47:40;16.40;99.90
8953;DHT22;4511;50.890;8.054;2023-05-09T07:50:09;16.40;99.90
8953;DHT22;4511;50.890;8.054;2023-05-09T07:52:36;16.50;99.90
8953;DHT22;4511;50.890;8.054;2023-05-09T07:55:03;16.70;99.90
8953;DHT22;4511;50.890;8.054;2023-05-09T07:57:29;16.70;99.90
8953;DHT22;4511;50.890;8.054;2023-05-09T07:59:56;16.80;99.90
8953;DHT22;4511;50.890;8.054;2023-05-09T08:02:23;16.90;99.90
8953;DHT22;4511;50.890;8.054;2023-05-09T08:04:50;16.90;99.90
8953;DHT22;4511;50.890;8.054;2023-05-09T08:07:18;16.90;99.90
8953;DHT22;4511;50.890;8.054;2023-05-09T08:09:45;16.90;99.90
8953;DHT22;4511;50.890;8.054;2023-05-09T08:12:12;16.90;99.90
8953;DHT22;4511;50.890;8.054;2023-05-09T08:14:39;16.90;99.90
8953;DHT22;4511;50.890;8.054;2023-05-09T08:17:05;17.00;99.90
8953;DHT22;4511;50.890;8.054;2023-05-09T08:19:32;17.00;99.90
8953;DHT22;4511;50.890;8.054;2023-05-09T08:21:59;17.10;99.90
8953;DHT22;4511;50.890;8.054;2023-05-09T08:24:34;17.10;99.90
8953;DHT22;4511;50.890;8.054;2023-05-09T08:27:01;17.10;99.90
8953;DHT22;4511;50.890;8.054;2023-05-09T08:29:27;17.10;99.90
8953;DHT22;4511;50.890;8.054;2023-05-09T08:31:54;17.10;99.90
8953;DHT22;4511;50.890;8.054;2023-05-09T08:34:21;17.10;99.90
8953;DHT22;4511;50.890;8.054;2023-05-09T08:36:47;17.10;99.90
8953;DHT22;4511;50.890;8.054;2023-05-09T08:39:14;17.10;99.90
8953;DHT22;4511;50.890;8.054;2023-05-09T08:41:42;17.10;99.90
8953;DHT22;4511;50.890;8.054;2023-05-09T08:44:10;17.10;99.90
8953;DHT22;4511;50.890;8.054;2023-05-09T08:46:39;17.10;99.90
8953;DHT22;4511;50.890;8.054;2023-05-09T08:49:08;17.10;99.90
8953;DHT22;4511;50.890;8.054;2023-05-09T08:51:35;17.20;99.90
8953;DHT22;4511;50.890;8.054;2023-05-09T08:54:03;17.30;99.90
8953;DHT22;4511;50.890;8.054;2023-05-09T08:56:31;17.50;99.90
8953;DHT22;4511;50.890;8.054;2023-05-09T08:58:59;17.70;99.90
8953;DHT22;4511;50.890;8.054;2023-05-09T09:01:26;17.80;99.90
8953;DHT22;4511;50.890;8.054;2023-05-09T09:03:54;17.80;99.90
8953;DHT22;4511;50.890;8.054;2023-05-09T09:06:22;17.90;99.90
8953;DHT22;4511;50.890;8.054;2023-05-09T09:08:51;17.90;99.90
8953;DHT22;4511;50.890;8.054;2023-05-09T09:11:20;17.90;99.90
8953;DHT22;4511;50.890;8.054;2023-05-09T09:13:50;17.90;99.90
8953;DHT22;4511;50.890;8.054;2023-05-09T09:16:21;17.90;99.90
8953;DHT22;4511;50.890;8.054;2023-05-09T09:18:51;17.90;99.90
8953;DHT22;4511;50.890;8.054;2023-05-09T09:21:19;17.80;99.90
8953;DHT22;4511;50.890;8.054;2023-05-09T09:23:47;17.80;99.90
8953;DHT22;4511;50.890;8.054;2023-05-09T09:26:15;17.80;99.90
8953;DHT22;4511;50.890;8.054;2023-05-09T09:28:42;17.90;99.90
8953;DHT22;4511;50.890;8.054;2023-05-09T09:31:20;18.10;99.90
8953;DHT22;4511;50.890;8.054;2023-05-09T09:33:47;18.20;99.90
8953;DHT22;4511;50.890;8.054;2023-05-09T09:36:14;18.30;99.90
8953;DHT22;4511;50.890;8.054;2023-05-09T09:38:41;18.40;99.90
8953;DHT22;4511;50.890;8.054;2023-05-09T09:41:09;18.30;99.90
8953;DHT22;4511;50.890;8.054;2023-05-09T09:43:37;18.40;99.90
8953;DHT22;4511;50.890;8.054;2023-05-09T09:46:04;18.50;99.90
8953;DHT22;4511;50.890;8.054;2023-05-09T09:48:33;18.60;99.90
8953;DHT22;4511;50.890;8.054;2023-05-09T09:51:04;18.60;99.90
8953;DHT22;4511;50.890;8.054;2023-05-09T09:53:38;18.60;99.90
8953;DHT22;4511;50.890;8.054;2023-05-09T09:56:05;18.70;99.90
8953;DHT22;4511;50.890;8.054;2023-05-09T09:58:32;18.60;99.90
8953;DHT22;4511;50.890;8.054;2023-05-09T10:01:06;18.60;99.90
8953;DHT22;4511;50.890;8.054;2023-05-09T10:03:39;18.60;99.90
8953;DHT22;4511;50.890;8.054;2023-05-09T10:06:09;18.70;99.90
8953;DHT22;4511;50.890;8.054;2023-05-09T10:08:37;18.80;99.90
8953;DHT22;4511;50.890;8.054;2023-05-09T10:11:03;18.90;99.90
8953;DHT22;4511;50.890;8.054;2023-05-09T10:13:33;19.00;99.90
8953;DHT22;4511;50.890;8.054;2023-05-09T10:16:03;19.00;99.90
8953;DHT22;4511;50.890;8.054;2023-05-09T10:18:30;19.00;99.90
8953;DHT22;4511;50.890;8.054;2023-05-09T10:20:58;18.80;99.90
8953;DHT22;4511;50.890;8.054;2023-05-09T10:23:29;18.70;99.90
8953;DHT22;4511;50.890;8.054;2023-05-09T10:26:02;18.60;99.90
8953;DHT22;4511;50.890;8.054;2023-05-09T10:28:32;18.50;99.90
8953;DHT22;4511;50.890;8.054;2023-05-09T10:31:03;18.50;99.90
8953;DHT22;4511;50.890;8.054;2023-05-09T10:33:37;18.50;99.90
8953;DHT22;4511;50.890;8.054;2023-05-09T10:36:09;18.60;99.90
8953;DHT22;4511;50.890;8.054;2023-05-09T10:38:36;18.70;99.90
8953;DHT22;4511;50.890;8.054;2023-05-09T10:41:04;18.90;99.90
8953;DHT22;4511;50.890;8.054;2023-05-09T10:43:31;19.20;99.90
8953;DHT22;4511;50.890;8.054;2023-05-09T10:45:58;19.40;99.90
8953;DHT22;4511;50.890;8.054;2023-05-09T10:48:26;19.40;99.90
8953;DHT22;4511;50.890;8.054;2023-05-09T10:50:54;19.40;99.90
8953;DHT22;4511;50.890;8.054;2023-05-09T10:53:22;19.20;99.90
8953;DHT22;4511;50.890;8.054;2023-05-09T10:55:51;19.00;99.90
8953;DHT22;4511;50.890;8.054;2023-05-09T10:58:24;18.70;99.90
8953;DHT22;4511;50.890;8.054;2023-05-09T11:00:53;18.60;99.90
8953;DHT22;4511;50.890;8.054;2023-05-09T11:03:20;18.40;99.90
8953;DHT22;4511;50.890;8.054;2023-05-09T11:05:50;18.30;99.90
8953;DHT22;4511;50.890;8.054;2023-05-09T11:08:18;18.20;99.90
8953;DHT22;4511;50.890;8.054;2023-05-09T11:10:47;18.10;99.90
8953;DHT22;4511;50.890;8.054;2023-05-09T11:13:18;18.10;99.90
8953;DHT22;4511;50.890;8.054;2023-05-09T11:16:07;18.10;99.90
8953;DHT22;4511;50.890;8.054;2023-05-09T11:18:49;18.10;99.90
8953;DHT22;4511;50.890;8.054;2023-05-09T11:21:16;18.30;99.90
8953;DHT22;4511;50.890;8.054;2023-05-09T11:23:45;18.50;99.90
8953;DHT22;4511;50.890;8.054;2023-05-09T11:26:14;18.60;99.90
8953;DHT22;4511;50.890;8.054;2023-05-09T11:28:51;18.70;99.90
8953;DHT22;4511;50.890;8.054;2023-05-09T11:31:19;18.90;99.90
8953;DHT22;4511;50.890;8.054;2023-05-09T11:33:49;19.40;99.90
8953;DHT22;4511;50.890;8.054;2023-05-09T11:36:26;19.70;99.90
8953;DHT22;4511;50.890;8.054;2023-05-09T11:39:02;20.00;99.90
8953;DHT22;4511;50.890;8.054;2023-05-09T11:41:37;20.20;99.90
8953;DHT22;4511;50.890;8.054;2023-05-09T11:44:12;20.10;99.90
8953;DHT22;4511;50.890;8.054;2023-05-09T11:46:39;20.10;99.90
8953;DHT22;4511;50.890;8.054;2023-05-09T11:49:06;20.10;99.90
8953;DHT22;4511;50.890;8.054;2023-05-09T11:51:35;20.00;99.90
8953;DHT22;4511;50.890;8.054;2023-05-09T11:54:03;20.00;99.90
8953;DHT22;4511;50.890;8.054;2023-05-09T11:56:31;19.90;99.90
8953;DHT22;4511;50.890;8.054;2023-05-09T11:58:59;19.80;99.90
8953;DHT22;4511;50.890;8.054;2023-05-09T12:01:27;19.50;99.90
8953;DHT22;4511;50.890;8.054;2023-05-09T12:03:54;19.60;99.90
8953;DHT22;4511;50.890;8.054;2023-05-09T12:06:21;19.60;99.90
8953;DHT22;4511;50.890;8.054;2023-05-09T12:08:50;19.70;99.90
8953;DHT22;4511;50.890;8.054;2023-05-09T12:11:17;19.70;99.90
8953;DHT22;4511;50.890;8.054;2023-05-09T12:13:47;19.60;99.90
8953;DHT22;4511;50.890;8.054;2023-05-09T12:16:15;19.50;99.90
8953;DHT22;4511;50.890;8.054;2023-05-09T12:18:44;19.40;99.90
8953;DHT22;4511;50.890;8.054;2023-05-09T12:21:11;19.50;99.90
8953;DHT22;4511;50.890;8.054;2023-05-09T12:23:38;19.80;99.90
8953;DHT22;4511;50.890;8.054;2023-05-09T12:26:05;19.90;99.90
8953;DHT22;4511;50.890;8.054;2023-05-09T12:28:33;19.90;99.90
8953;DHT22;4511;50.890;8.054;2023-05-09T12:31:02;19.90;99.90
8953;DHT22;4511;50.890;8.054;2023-05-09T12:33:29;19.80;99.90
8953;DHT22;4511;50.890;8.054;2023-05-09T12:36:02;19.60;99.90
8953;DHT22;4511;50.890;8.054;2023-05-09T12:38:29;19.40;99.90
8953;DHT22;4511;50.890;8.054;2023-05-09T12:40:59;19.20;99.90
8953;DHT22;4511;50.890;8.054;2023-05-09T12:43:29;19.20;99.90
8953;DHT22;4511;50.890;8.054;2023-05-09T12:49:20;19.40;99.90
8953;DHT22;4511;50.890;8.054;2023-05-09T12:51:47;19.40;99.90
8953;DHT22;4511;50.890;8.054;2023-05-09T12:54:19;19.50;99.90
8953;DHT22;4511;50.890;8.054;2023-05-09T12:56:46;19.70;99.90
8953;DHT22;4511;50.890;8.054;2023-05-09T12:59:13;19.80;99.90
8953;DHT22;4511;50.890;8.054;2023-05-09T13:01:50;20.10;99.90
8953;DHT22;4511;50.890;8.054;2023-05-09T13:04:20;20.20;99.90
8953;DHT22;4511;50.890;8.054;2023-05-09T13:06:48;20.50;99.90
8953;DHT22;4511;50.890;8.054;2023-05-09T13:09:16;20.70;99.90
8953;DHT22;4511;50.890;8.054;2023-05-09T13:11:43;21.00;99.90
8953;DHT22;4511;50.890;8.054;2023-05-09T13:14:10;21.40;99.90
8953;DHT22;4511;50.890;8.054;2023-05-09T13:16:38;21.90;99.90
8953;DHT22;4511;50.890;8.054;2023-05-09T13:19:05;22.60;99.90
8953;DHT22;4511;50.890;8.054;2023-05-09T13:21:33;23.00;99.90
8953;DHT22;4511;50.890;8.054;2023-05-09T13:24:00;23.30;99.90
8953;DHT22;4511;50.890;8.054;2023-05-09T13:26:27;23.60;99.90
8953;DHT22;4511;50.890;8.054;2023-05-09T13:28:54;23.40;99.90
8953;DHT22;4511;50.890;8.054;2023-05-09T13:31:21;23.50;99.90
8953;DHT22;4511;50.890;8.054;2023-05-09T13:33:48;23.80;99.90
8953;DHT22;4511;50.890;8.054;2023-05-09T13:36:15;23.90;99.90
8953;DHT22;4511;50.890;8.054;2023-05-09T13:38:43;23.50;99.90
8953;DHT22;4511;50.890;8.054;2023-05-09T13:41:10;23.20;99.90
8953;DHT22;4511;50.890;8.054;2023-05-09T13:43:38;22.70;99.90
8953;DHT22;4511;50.890;8.054;2023-05-09T13:46:04;22.20;99.90
8953;DHT22;4511;50.890;8.054;2023-05-09T13:48:31;21.90;99.90
8953;DHT22;4511;50.890;8.054;2023-05-09T13:50:58;21.80;99.90
8953;DHT22;4511;50.890;8.054;2023-05-09T13:53:25;21.70;99.90
8953;DHT22;4511;50.890;8.054;2023-05-09T13:55:53;21.70;99.90
8953;DHT22;4511;50.890;8.054;2023-05-09T13:58:20;21.70;99.90
8953;DHT22;4511;50.890;8.054;2023-05-09T14:00:47;21.70;99.90
8953;DHT22;4511;50.890;8.054;2023-05-09T14:03:14;21.60;99.90
8953;DHT22;4511;50.890;8.054;2023-05-09T14:05:41;21.30;99.90
8953;DHT22;4511;50.890;8.054;2023-05-09T14:08:08;21.10;99.90
8953;DHT22;4511;50.890;8.054;2023-05-09T14:10:35;20.70;99.90
8953;DHT22;4511;50.890;8.054;2023-05-09T14:13:03;20.40;99.90
8953;DHT22;4511;50.890;8.054;2023-05-09T14:15:34;20.30;99.90
8953;DHT22;4511;50.890;8.054;2023-05-09T14:18:00;20.20;99.90
8953;DHT22;4511;50.890;8.054;2023-05-09T14:20:27;20.20;99.90
8953;DHT22;4511;50.890;8.054;2023-05-09T14:22:54;20.00;99.90
8953;DHT22;4511;50.890;8.054;2023-05-09T14:25:25;19.90;99.90
8953;DHT22;4511;50.890;8.054;2023-05-09T14:27:52;19.70;99.90
8953;DHT22;4511;50.890;8.054;2023-05-09T14:30:20;19.70;99.90
8953;DHT22;4511;50.890;8.054;2023-05-09T14:32:47;19.60;99.90
8953;DHT22;4511;50.890;8.054;2023-05-09T14:35:14;19.50;99.90
8953;DHT22;4511;50.890;8.054;2023-05-09T14:37:40;19.30;99.90
8953;DHT22;4511;50.890;8.054;2023-05-09T14:40:08;19.20;99.90
8953;DHT22;4511;50.890;8.054;2023-05-09T14:42:35;19.20;99.90
8953;DHT22;4511;50.890;8.054;2023-05-09T14:45:05;19.10;99.90
8953;DHT22;4511;50.890;8.054;2023-05-09T14:47:33;19.00;99.90
8953;DHT22;4511;50.890;8.054;2023-05-09T14:50:00;19.00;99.90
8953;DHT22;4511;50.890;8.054;2023-05-09T14:52:26;18.90;99.90
8953;DHT22;4511;50.890;8.054;2023-05-09T14:54:54;18.90;99.90
8953;DHT22;4511;50.890;8.054;2023-05-09T14:57:20;18.90;99.90
8953;DHT22;4511;50.890;8.054;2023-05-09T14:59:47;18.90;99.90
8953;DHT22;4511;50.890;8.054;2023-05-09T15:02:14;18.90;99.90
8953;DHT22;4511;50.890;8.054;2023-05-09T15:04:42;18.90;99.90
8953;DHT22;4511;50.890;8.054;2023-05-09T15:07:09;18.90;99.90
8953;DHT22;4511;50.890;8.054;2023-05-09T15:09:36;18.90;99.90
8953;DHT22;4511;50.890;8.054;2023-05-09T15:12:03;18.90;99.90
8953;DHT22;4511;50.890;8.054;2023-05-09T15:14:29;18.90;99.90
8953;DHT22;4511;50.890;8.054;2023-05-09T15:16:56;18.90;99.90
8953;DHT22;4511;50.890;8.054;2023-05-09T15:19:27;18.70;99.90
8953;DHT22;4511;50.890;8.054;2023-05-09T15:21:57;18.70;99.90
8953;DHT22;4511;50.890;8.054;2023-05-09T15:24:24;18.70;99.90
8953;DHT22;4511;50.890;8.054;2023-05-09T15:26:51;18.70;99.90
8953;DHT22;4511;50.890;8.054;2023-05-09T15:29:18;18.70;99.90
8953;DHT22;4511;50.890;8.054;2023-05-09T15:31:46;18.60;99.90
8953;DHT22;4511;50.890;8.054;2023-05-09T15:34:13;18.60;99.90
8953;DHT22;4511;50.890;8.054;2023-05-09T15:36:40;18.50;99.90
8953;DHT22;4511;50.890;8.054;2023-05-09T15:39:08;18.50;99.90
8953;DHT22;4511;50.890;8.054;2023-05-09T15:41:35;18.40;99.90
8953;DHT22;4511;50.890;8.054;2023-05-09T15:44:02;18.40;99.90
8953;DHT22;4511;50.890;8.054;2023-05-09T15:46:28;18.30;99.90
8953;DHT22;4511;50.890;8.054;2023-05-09T15:48:55;18.30;99.90
8953;DHT22;4511;50.890;8.054;2023-05-09T15:51:24;18.40;99.90
8953;DHT22;4511;50.890;8.054;2023-05-09T15:53:53;18.20;99.90
8953;DHT22;4511;50.890;8.054;2023-05-09T15:56:21;18.10;99.90
8953;DHT22;4511;50.890;8.054;2023-05-09T15:58:48;18.10;99.90
8953;DHT22;4511;50.890;8.054;2023-05-09T16:01:15;18.00;99.90
8953;DHT22;4511;50.890;8.054;2023-05-09T16:03:42;18.00;99.90
8953;DHT22;4511;50.890;8.054;2023-05-09T16:06:09;17.90;99.90
8953;DHT22;4511;50.890;8.054;2023-05-09T16:08:37;17.90;99.90
8953;DHT22;4511;50.890;8.054;2023-05-09T16:11:04;17.90;99.90